createdAt,value
2019-02-11T00:00:14.389Z,99.99
2019-02-11T00:01:14.374Z,99.99
2019-02-11T00:02:14.357Z,99.99
2019-02-11T00:03:14.344Z,99.99
2019-02-11T00:04:14.326Z,99.99
2019-02-11T00:05:14.311Z,99.99
2019-02-11T00:06:14.295Z,99.99
2019-02-11T00:07:14.280Z,99.99
2019-02-11T00:08:14.265Z,99.99
2019-02-11T00:09:14.268Z,99.99
2019-02-11T00:10:14.233Z,99.99
2019-02-11T00:11:14.218Z,99.99
2019-02-11T00:12:14.203Z,99.99
2019-02-11T00:13:14.188Z,99.99
2019-02-11T00:14:14.172Z,99.99
2019-02-11T00:15:14.160Z,99.99
2019-02-11T00:16:14.142Z,99.99
2019-02-11T00:17:14.126Z,99.99
2019-02-11T00:18:14.110Z,99.99
2019-02-11T00:19:14.095Z,99.99
2019-02-11T00:20:14.085Z,99.99
2019-02-11T00:21:14.066Z,99.99
2019-02-11T00:22:14.050Z,99.99
2019-02-11T00:23:14.035Z,99.99
2019-02-11T00:24:14.048Z,99.99
2019-02-11T00:25:14.006Z,99.99
2019-02-11T00:26:13.989Z,99.99
2019-02-11T00:27:13.975Z,99.99
2019-02-11T00:28:13.959Z,99.99
2019-02-11T00:29:13.944Z,99.99
2019-02-11T00:30:13.932Z,99.99
2019-02-11T00:31:13.959Z,99.99
2019-02-11T00:32:13.899Z,99.99
2019-02-11T00:33:13.884Z,99.99
2019-02-11T00:34:13.869Z,99.99
2019-02-11T00:35:13.856Z,99.99
2019-02-11T00:36:13.838Z,99.99
2019-02-11T00:37:13.823Z,99.99
2019-02-11T00:38:13.810Z,99.99
2019-02-11T00:39:13.794Z,99.99
2019-02-11T00:40:13.783Z,99.99
2019-02-11T00:41:13.763Z,99.99
2019-02-11T00:42:13.748Z,99.99
2019-02-11T00:43:19.010Z,99.99
2019-02-11T00:44:13.719Z,99.99
2019-02-11T00:45:13.703Z,99.99
2019-02-11T00:46:13.687Z,99.99
2019-02-11T00:47:13.675Z,99.99
2019-02-11T00:48:13.658Z,99.99
2019-02-11T00:49:13.645Z,99.99
2019-02-11T00:50:13.629Z,99.99
2019-02-11T00:51:13.612Z,99.99
2019-02-11T00:52:13.597Z,99.99
2019-02-11T00:53:13.588Z,99.99
2019-02-11T00:54:13.594Z,99.99
2019-02-11T00:55:13.551Z,99.99
2019-02-11T00:56:13.537Z,99.99
2019-02-11T00:57:13.522Z,99.99
2019-02-11T00:58:13.555Z,99.99
2019-02-11T00:59:13.498Z,99.99
2019-02-11T01:00:13.475Z,99.99
2019-02-11T01:01:13.463Z,99.99
2019-02-11T01:02:13.445Z,99.99
2019-02-11T01:03:13.430Z,99.99
2019-02-11T01:04:13.415Z,99.99
2019-02-11T01:05:13.399Z,99.99
2019-02-11T01:06:13.384Z,99.99
2019-02-11T01:07:13.369Z,99.99
2019-02-11T01:08:13.353Z,99.99
2019-02-11T01:09:13.337Z,99.99
2019-02-11T01:10:13.322Z,99.99
2019-02-11T01:11:13.307Z,99.99
2019-02-11T01:12:13.291Z,99.99
2019-02-11T01:13:13.280Z,99.99
2019-02-11T01:14:13.260Z,99.99
2019-02-11T01:15:13.244Z,99.99
2019-02-11T01:16:13.229Z,99.99
2019-02-11T01:17:13.216Z,99.99
2019-02-11T01:18:13.197Z,99.99
2019-02-11T01:19:13.183Z,99.99
2019-02-11T01:20:13.167Z,99.99
2019-02-11T01:21:13.151Z,99.99
2019-02-11T01:22:13.135Z,99.99
2019-02-11T01:23:13.170Z,99.99
2019-02-11T01:24:13.104Z,99.99
2019-02-11T01:25:13.089Z,99.99
2019-02-11T01:26:13.072Z,99.99
2019-02-11T01:27:13.058Z,99.99
2019-02-11T01:28:13.041Z,99.99
2019-02-11T01:29:13.026Z,99.99
2019-02-11T01:30:13.010Z,99.99
2019-02-11T01:31:12.994Z,99.99
2019-02-11T01:32:12.979Z,99.99
2019-02-11T01:33:12.963Z,99.99
2019-02-11T01:34:12.947Z,99.99
2019-02-11T01:35:12.931Z,99.99
2019-02-11T01:36:12.916Z,99.99
2019-02-11T01:37:12.903Z,99.99
2019-02-11T01:38:12.884Z,99.99
2019-02-11T01:39:12.869Z,99.99
2019-02-11T01:40:12.904Z,99.99
2019-02-11T01:41:12.838Z,99.99
2019-02-11T01:42:12.829Z,99.99
2019-02-11T01:43:12.808Z,99.99
2019-02-11T01:44:12.792Z,99.99
2019-02-11T01:45:12.776Z,99.99
2019-02-11T01:46:12.760Z,99.99
2019-02-11T01:47:12.745Z,99.99
2019-02-11T01:48:12.730Z,99.99
2019-02-11T01:49:12.715Z,99.99
2019-02-11T01:50:12.698Z,99.99
2019-02-11T01:51:12.683Z,99.99
2019-02-11T01:52:12.667Z,99.99
2019-02-11T01:53:12.652Z,99.99
2019-02-11T01:54:12.636Z,99.99
2019-02-11T01:55:12.620Z,99.99
2019-02-11T01:56:12.606Z,99.99
2019-02-11T01:57:12.590Z,99.99
2019-02-11T01:58:12.574Z,99.99
2019-02-11T01:59:12.558Z,99.99
2019-02-11T02:00:12.543Z,99.99
2019-02-11T02:01:12.527Z,99.99
2019-02-11T02:02:12.511Z,99.99
2019-02-11T02:03:12.496Z,99.99
2019-02-11T02:04:12.482Z,99.99
2019-02-11T02:05:12.467Z,99.99
2019-02-11T02:06:12.453Z,99.99
2019-02-11T02:07:12.434Z,99.99
2019-02-11T02:08:12.419Z,99.99
2019-02-11T02:09:12.404Z,99.99
2019-02-11T02:10:12.387Z,99.99
2019-02-11T02:11:12.372Z,99.99
2019-02-11T02:12:12.357Z,99.99
2019-02-11T02:13:12.342Z,99.99
2019-02-11T02:14:12.326Z,99.99
2019-02-11T02:15:12.311Z,99.99
2019-02-11T02:16:12.295Z,99.99
2019-02-11T02:17:12.281Z,99.99
2019-02-11T02:18:12.264Z,99.99
2019-02-11T02:19:12.251Z,99.99
2019-02-11T02:20:12.236Z,99.99
2019-02-11T02:21:12.219Z,99.99
2019-02-11T02:22:12.204Z,99.99
2019-02-11T02:23:12.189Z,99.99
2019-02-11T02:24:12.174Z,99.99
2019-02-11T02:25:12.159Z,99.99
2019-02-11T02:26:12.143Z,99.99
2019-02-11T02:27:12.133Z,99.99
2019-02-11T02:28:12.114Z,99.99
2019-02-11T02:29:12.102Z,99.99
2019-02-11T02:30:12.083Z,99.99
2019-02-11T02:31:12.070Z,99.99
2019-02-11T02:32:12.056Z,99.99
2019-02-11T02:33:12.039Z,99.99
2019-02-11T02:34:12.023Z,99.99
2019-02-11T02:35:12.008Z,99.99
2019-02-11T02:36:11.994Z,99.99
2019-02-11T02:37:11.978Z,99.99
2019-02-11T02:38:11.965Z,99.99
2019-02-11T02:39:11.950Z,99.99
2019-02-11T02:40:11.934Z,99.99
2019-02-11T02:41:11.919Z,99.99
2019-02-11T02:42:11.903Z,99.99
2019-02-11T02:43:11.914Z,99.99
2019-02-11T02:44:11.874Z,99.99
2019-02-11T02:45:11.859Z,99.99
2019-02-11T02:46:11.844Z,99.99
2019-02-11T02:47:11.831Z,99.99
2019-02-11T02:48:11.815Z,99.99
2019-02-11T02:49:11.800Z,99.99
2019-02-11T02:50:11.784Z,99.99
2019-02-11T02:51:11.770Z,99.99
2019-02-11T02:52:11.755Z,99.99
2019-02-11T02:53:11.742Z,99.99
2019-02-11T02:54:11.725Z,99.99
2019-02-11T02:55:11.769Z,99.99
2019-02-11T02:56:11.697Z,99.99
2019-02-11T02:57:11.741Z,99.99
2019-02-11T02:58:11.666Z,99.99
2019-02-11T02:59:11.653Z,99.99
2019-02-11T03:00:11.693Z,99.99
2019-02-11T03:01:11.623Z,99.99
2019-02-11T03:02:11.607Z,99.99
2019-02-11T03:03:11.603Z,99.99
2019-02-11T03:04:11.578Z,99.99
2019-02-11T03:05:11.564Z,99.99
2019-02-11T03:06:11.549Z,99.99
2019-02-11T03:07:11.538Z,99.99
2019-02-11T03:08:11.521Z,99.99
2019-02-11T03:09:11.505Z,99.99
2019-02-11T03:10:11.491Z,99.99
2019-02-11T03:11:11.478Z,99.99
2019-02-11T03:12:11.461Z,99.99
2019-02-11T03:13:11.462Z,99.99
2019-02-11T03:14:11.433Z,99.99
2019-02-11T03:15:11.416Z,99.99
2019-02-11T03:16:11.403Z,99.99
2019-02-11T03:17:11.390Z,99.99
2019-02-11T03:18:11.373Z,99.99
2019-02-11T03:19:11.360Z,99.99
2019-02-11T03:20:11.344Z,99.99
2019-02-11T03:21:11.333Z,99.99
2019-02-11T03:22:11.315Z,99.99
2019-02-11T03:23:11.303Z,99.99
2019-02-11T03:24:11.286Z,99.99
2019-02-11T03:25:11.323Z,99.99
2019-02-11T03:26:11.256Z,99.99
2019-02-11T03:27:11.242Z,99.99
2019-02-11T03:28:11.228Z,99.99
2019-02-11T03:29:11.214Z,99.99
2019-02-11T03:30:11.294Z,99.99
2019-02-11T03:31:11.187Z,99.99
2019-02-11T03:32:11.177Z,99.99
2019-02-11T03:33:11.155Z,99.99
2019-02-11T03:34:11.140Z,99.99
2019-02-11T03:35:11.123Z,99.99
2019-02-11T03:36:11.109Z,99.99
2019-02-11T03:37:11.097Z,99.99
2019-02-11T03:38:11.079Z,99.99
2019-02-11T03:39:11.065Z,99.99
2019-02-11T03:40:11.052Z,99.99
2019-02-11T03:41:11.037Z,99.99
2019-02-11T03:42:11.025Z,99.99
2019-02-11T03:43:11.007Z,99.99
2019-02-11T03:44:15.062Z,99.99
2019-02-11T03:45:10.981Z,99.99
2019-02-11T03:46:10.962Z,99.99
2019-02-11T03:47:10.949Z,99.99
2019-02-11T03:48:10.933Z,99.99
2019-02-11T03:49:10.919Z,99.99
2019-02-11T03:50:10.903Z,99.99
2019-02-11T03:51:10.953Z,99.99
2019-02-11T03:52:10.874Z,99.99
2019-02-11T03:53:10.863Z,99.99
2019-02-11T03:54:10.853Z,99.99
2019-02-11T03:55:10.835Z,99.99
2019-02-11T03:56:10.816Z,99.99
2019-02-11T03:57:10.802Z,99.99
2019-02-11T03:58:10.786Z,99.99
2019-02-11T03:59:10.772Z,99.99
2019-02-11T04:00:10.757Z,99.99
2019-02-11T04:01:10.742Z,99.99
2019-02-11T04:02:10.727Z,99.99
2019-02-11T04:03:10.714Z,99.99
2019-02-11T04:04:10.709Z,99.99
2019-02-11T04:05:10.684Z,99.99
2019-02-11T04:06:10.670Z,99.99
2019-02-11T04:07:10.665Z,99.99
2019-02-11T04:08:10.645Z,99.99
2019-02-11T04:09:10.627Z,99.99
2019-02-11T04:10:10.614Z,99.99
2019-02-11T04:11:10.597Z,99.99
2019-02-11T04:12:10.584Z,99.99
2019-02-11T04:13:10.567Z,99.99
2019-02-11T04:14:10.551Z,99.99
2019-02-11T04:15:10.536Z,99.99
2019-02-11T04:16:10.522Z,99.99
2019-02-11T04:17:10.512Z,99.99
2019-02-11T04:18:10.493Z,99.99
2019-02-11T04:19:10.477Z,99.99
2019-02-11T04:20:10.549Z,99.99
2019-02-11T04:21:10.507Z,99.99
2019-02-11T04:22:10.433Z,99.99
2019-02-11T04:23:10.420Z,99.99
2019-02-11T04:24:10.405Z,99.99
2019-02-11T04:25:10.390Z,99.99
2019-02-11T04:26:10.376Z,99.99
2019-02-11T04:27:10.360Z,99.99
2019-02-11T04:28:10.350Z,99.99
2019-02-11T04:29:10.330Z,99.99
2019-02-11T04:30:10.315Z,99.99
2019-02-11T04:31:10.300Z,99.99
2019-02-11T04:32:10.286Z,99.99
2019-02-11T04:33:10.271Z,99.99
2019-02-11T04:34:10.273Z,99.99
2019-02-11T04:35:10.244Z,99.99
2019-02-11T04:36:10.226Z,99.99
2019-02-11T04:37:10.212Z,99.99
2019-02-11T04:38:10.200Z,99.99
2019-02-11T04:39:10.181Z,99.99
2019-02-11T04:40:10.170Z,99.99
2019-02-11T04:41:10.955Z,99.99
2019-02-11T04:42:10.138Z,99.99
2019-02-11T04:43:10.126Z,99.99
2019-02-11T04:44:10.108Z,99.99
2019-02-11T04:45:10.095Z,99.99
2019-02-11T04:46:10.077Z,99.99
2019-02-11T04:47:10.065Z,99.99
2019-02-11T04:48:10.049Z,99.99
2019-02-11T04:49:10.034Z,99.99
2019-02-11T04:50:10.019Z,99.99
2019-02-11T04:51:10.009Z,99.99
2019-02-11T04:52:09.998Z,99.99
2019-02-11T04:53:09.977Z,99.99
2019-02-11T04:54:09.961Z,99.99
2019-02-11T04:55:09.947Z,99.99
2019-02-11T04:56:09.932Z,99.99
2019-02-11T04:57:09.916Z,99.99
2019-02-11T04:58:09.901Z,99.99
2019-02-11T04:59:09.887Z,99.99
2019-02-11T05:00:09.872Z,99.99
2019-02-11T05:01:09.858Z,99.99
2019-02-11T05:02:09.842Z,99.99
2019-02-11T05:03:09.828Z,99.99
2019-02-11T05:04:09.815Z,99.99
2019-02-11T05:05:09.802Z,99.99
2019-02-11T05:06:09.785Z,99.99
2019-02-11T05:07:09.770Z,99.99
2019-02-11T05:08:09.762Z,99.99
2019-02-11T05:09:09.740Z,99.99
2019-02-11T05:10:09.724Z,99.99
2019-02-11T05:11:09.709Z,99.99
2019-02-11T05:12:09.697Z,99.99
2019-02-11T05:13:09.680Z,99.99
2019-02-11T05:14:09.664Z,99.99
2019-02-11T05:15:09.657Z,99.99
2019-02-11T05:16:09.637Z,99.99
2019-02-11T05:17:09.621Z,99.99
2019-02-11T05:18:09.605Z,99.99
2019-02-11T05:19:09.591Z,99.99
2019-02-11T05:20:09.579Z,99.99
2019-02-11T05:21:09.563Z,99.99
2019-02-11T05:22:09.546Z,99.99
2019-02-11T05:23:09.532Z,99.99
2019-02-11T05:24:09.520Z,99.99
2019-02-11T05:25:09.503Z,99.99
2019-02-11T05:26:09.494Z,99.99
2019-02-11T05:27:09.473Z,99.99
2019-02-11T05:28:09.472Z,99.99
2019-02-11T05:29:09.456Z,99.99
2019-02-11T05:30:09.433Z,99.99
2019-02-11T05:31:09.413Z,99.99
2019-02-11T05:32:09.399Z,99.99
2019-02-11T05:33:09.420Z,99.99
2019-02-11T05:34:09.368Z,99.99
2019-02-11T05:35:09.396Z,99.99
2019-02-11T05:36:09.350Z,99.99
2019-02-11T05:37:09.323Z,99.99
2019-02-11T05:38:09.311Z,99.99
2019-02-11T05:39:09.293Z,99.99
2019-02-11T05:40:09.280Z,99.99
2019-02-11T05:41:09.264Z,99.99
2019-02-11T05:42:09.248Z,99.99
2019-02-11T05:43:09.234Z,99.99
2019-02-11T05:44:09.219Z,99.99
2019-02-11T05:45:09.208Z,99.99
2019-02-11T05:46:09.195Z,99.99
2019-02-11T05:47:09.173Z,99.99
2019-02-11T05:48:09.164Z,99.99
2019-02-11T05:49:09.153Z,99.99
2019-02-11T05:50:09.129Z,99.99
2019-02-11T05:51:09.116Z,99.99
2019-02-11T05:52:09.099Z,99.99
2019-02-11T05:53:09.085Z,99.99
2019-02-11T05:54:09.069Z,99.99
2019-02-11T05:55:09.055Z,99.99
2019-02-11T05:56:09.040Z,99.99
2019-02-11T05:57:09.025Z,99.99
2019-02-11T05:58:09.057Z,99.99
2019-02-11T05:59:09.002Z,99.99
2019-02-11T06:00:08.981Z,99.99
2019-02-11T06:01:08.966Z,99.99
2019-02-11T06:02:08.950Z,99.99
2019-02-11T06:03:09.626Z,99.99
2019-02-11T06:04:08.922Z,99.99
2019-02-11T06:05:08.907Z,99.99
2019-02-11T06:06:08.894Z,99.99
2019-02-11T06:07:08.877Z,99.99
2019-02-11T06:08:08.863Z,99.99
2019-02-11T06:09:08.848Z,99.99
2019-02-11T06:10:08.832Z,99.99
2019-02-11T06:11:08.818Z,99.99
2019-02-11T06:12:08.803Z,99.99
2019-02-11T06:13:08.790Z,99.99
2019-02-11T06:14:08.774Z,99.99
2019-02-11T06:15:08.759Z,99.99
2019-02-11T06:16:08.744Z,99.99
2019-02-11T06:17:08.731Z,99.99
2019-02-11T06:18:08.714Z,99.99
2019-02-11T06:19:08.700Z,99.99
2019-02-11T06:20:08.687Z,99.99
2019-02-11T06:21:08.671Z,99.99
2019-02-11T06:22:08.655Z,99.99
2019-02-11T06:23:08.641Z,99.99
2019-02-11T06:24:08.627Z,99.99
2019-02-11T06:25:08.613Z,99.99
2019-02-11T06:26:08.597Z,99.99
2019-02-11T06:27:08.584Z,99.99
2019-02-11T06:28:08.568Z,99.99
2019-02-11T06:29:08.553Z,99.99
2019-02-11T06:30:08.538Z,99.99
2019-02-11T06:31:08.523Z,99.99
2019-02-11T06:32:08.512Z,99.99
2019-02-11T06:33:08.494Z,99.99
2019-02-11T06:34:08.481Z,99.99
2019-02-11T06:35:08.465Z,99.99
2019-02-11T06:36:12.314Z,99.99
2019-02-11T06:37:08.437Z,99.99
2019-02-11T06:38:08.424Z,99.99
2019-02-11T06:39:08.409Z,99.99
2019-02-11T06:40:08.401Z,99.99
2019-02-11T06:41:08.378Z,99.99
2019-02-11T06:42:08.363Z,99.99
2019-02-11T06:43:08.348Z,99.99
2019-02-11T06:44:08.334Z,99.99
2019-02-11T06:45:13.126Z,99.99
2019-02-11T06:46:08.304Z,99.99
2019-02-11T06:47:08.290Z,99.99
2019-02-11T06:48:08.275Z,99.99
2019-02-11T06:49:08.262Z,99.99
2019-02-11T06:50:08.247Z,99.99
2019-02-11T06:51:08.233Z,99.99
2019-02-11T06:52:08.219Z,99.99
2019-02-11T06:53:08.202Z,99.99
2019-02-11T06:54:08.185Z,99.99
2019-02-11T06:55:08.171Z,99.99
2019-02-11T06:56:08.156Z,99.99
2019-02-11T06:57:08.144Z,99.99
2019-02-11T06:58:08.128Z,99.99
2019-02-11T06:59:08.112Z,99.99
2019-02-11T07:00:08.097Z,99.99
2019-02-11T07:01:08.087Z,99.99
2019-02-11T07:02:08.067Z,99.99
2019-02-11T07:03:08.053Z,99.99
2019-02-11T07:04:08.039Z,99.99
2019-02-11T07:05:08.033Z,99.99
2019-02-11T07:06:08.008Z,99.99
2019-02-11T07:07:07.994Z,99.99
2019-02-11T07:08:08.206Z,99.99
2019-02-11T07:09:07.964Z,99.99
2019-02-11T07:10:07.949Z,99.99
2019-02-11T07:11:07.934Z,99.99
2019-02-11T07:12:07.920Z,99.99
2019-02-11T07:13:07.905Z,99.99
2019-02-11T07:14:07.890Z,99.99
2019-02-11T07:15:07.875Z,99.99
2019-02-11T07:16:07.861Z,99.99
2019-02-11T07:17:07.847Z,99.99
2019-02-11T07:18:07.830Z,99.99
2019-02-11T07:19:07.815Z,99.99
2019-02-11T07:20:07.801Z,99.99
2019-02-11T07:21:07.786Z,99.99
2019-02-11T07:22:07.771Z,99.99
2019-02-11T07:23:07.756Z,99.99
2019-02-11T07:24:07.742Z,99.99
2019-02-11T07:25:07.728Z,99.99
2019-02-11T07:26:07.712Z,99.99
2019-02-11T07:27:07.698Z,99.99
2019-02-11T07:28:07.683Z,99.99
2019-02-11T07:29:07.669Z,99.99
2019-02-11T07:30:07.655Z,99.99
2019-02-11T07:31:07.638Z,99.99
2019-02-11T07:32:07.624Z,99.99
2019-02-11T07:33:07.610Z,99.99
2019-02-11T07:34:07.596Z,99.99
2019-02-11T07:35:07.581Z,99.99
2019-02-11T07:36:07.567Z,99.99
2019-02-11T07:37:07.552Z,99.99
2019-02-11T07:38:07.536Z,99.99
2019-02-11T07:39:07.523Z,99.99
2019-02-11T07:40:07.508Z,99.99
2019-02-11T07:41:07.492Z,99.99
2019-02-11T07:42:07.477Z,99.99
2019-02-11T07:43:07.464Z,99.99
2019-02-11T07:44:07.449Z,99.99
2019-02-11T07:45:07.434Z,99.99
2019-02-11T07:46:07.421Z,99.99
2019-02-11T07:47:07.405Z,99.99
2019-02-11T07:48:07.390Z,99.99
2019-02-11T07:49:07.376Z,99.99
2019-02-11T07:50:07.360Z,99.99
2019-02-11T07:51:07.347Z,99.99
2019-02-11T07:52:07.332Z,99.99
2019-02-11T07:53:07.322Z,99.99
2019-02-11T07:54:07.303Z,99.99
2019-02-11T07:55:07.290Z,99.99
2019-02-11T07:56:07.275Z,99.99
2019-02-11T07:57:07.260Z,99.99
2019-02-11T07:58:07.245Z,99.99
2019-02-11T07:59:07.231Z,99.99
2019-02-11T08:00:07.217Z,99.99
2019-02-11T08:01:07.203Z,99.99
2019-02-11T08:02:07.187Z,99.99
2019-02-11T08:03:07.178Z,99.99
2019-02-11T08:04:07.159Z,99.99
2019-02-11T08:05:07.144Z,99.99
2019-02-11T08:06:08.956Z,99.99
2019-02-11T08:07:07.114Z,99.99
2019-02-11T08:08:07.104Z,99.99
2019-02-11T08:09:07.089Z,99.99
2019-02-11T08:10:07.070Z,99.99
2019-02-11T08:11:07.057Z,99.99
2019-02-11T08:12:07.042Z,99.99
2019-02-11T08:13:07.028Z,99.99
2019-02-11T08:14:07.012Z,99.99
2019-02-11T08:15:06.999Z,99.99
2019-02-11T08:16:06.984Z,99.99
2019-02-11T08:17:06.970Z,99.99
2019-02-11T08:18:06.954Z,99.99
2019-02-11T08:19:06.942Z,99.99
2019-02-11T08:20:06.927Z,99.99
2019-02-11T08:21:06.914Z,99.99
2019-02-11T08:22:06.897Z,99.99
2019-02-11T08:23:13.079Z,99.99
2019-02-11T08:24:06.869Z,99.99
2019-02-11T08:25:06.858Z,99.99
2019-02-11T08:26:06.840Z,99.99
2019-02-11T08:27:06.826Z,99.99
2019-02-11T08:28:06.811Z,99.99
2019-02-11T08:29:06.797Z,99.99
2019-02-11T08:30:06.796Z,99.99
2019-02-11T08:31:06.770Z,99.99
2019-02-11T08:32:06.755Z,99.99
2019-02-11T08:33:06.742Z,99.99
2019-02-11T08:34:06.727Z,99.99
2019-02-11T08:35:06.714Z,99.99
2019-02-11T08:36:06.700Z,99.99
2019-02-11T08:37:06.689Z,99.99
2019-02-11T08:38:06.671Z,99.99
2019-02-11T08:39:06.657Z,99.99
2019-02-11T08:40:06.643Z,99.99
2019-02-11T08:41:06.630Z,99.99
2019-02-11T08:42:06.615Z,99.99
2019-02-11T08:43:06.601Z,99.99
2019-02-11T08:44:06.587Z,99.99
2019-02-11T08:45:06.574Z,99.99
2019-02-11T08:46:06.560Z,99.99
2019-02-11T08:47:06.546Z,99.99
2019-02-11T08:48:06.532Z,99.99
2019-02-11T08:49:06.530Z,99.99
2019-02-11T08:50:06.505Z,99.99
2019-02-11T08:51:06.491Z,99.99
2019-02-11T08:52:06.477Z,99.99
2019-02-11T08:53:06.463Z,99.99
2019-02-11T08:54:06.449Z,99.99
2019-02-11T08:55:06.435Z,99.99
2019-02-11T08:56:06.422Z,99.99
2019-02-11T08:57:06.408Z,99.99
2019-02-11T08:58:06.395Z,99.99
2019-02-11T08:59:06.380Z,99.99
2019-02-11T09:00:06.369Z,99.99
2019-02-11T09:01:06.354Z,99.99
2019-02-11T09:02:06.340Z,99.99
2019-02-11T09:03:06.332Z,99.99
2019-02-11T09:04:06.315Z,99.99
2019-02-11T09:05:06.302Z,99.99
2019-02-11T09:06:06.287Z,99.99
2019-02-11T09:07:06.275Z,99.99
2019-02-11T09:08:06.261Z,99.99
2019-02-11T09:09:06.248Z,99.99
2019-02-11T09:10:06.234Z,99.99
2019-02-11T09:11:06.222Z,99.99
2019-02-11T09:12:06.209Z,99.99
2019-02-11T09:13:06.196Z,99.99
2019-02-11T09:14:06.183Z,99.99
2019-02-11T09:15:06.170Z,99.99
2019-02-11T09:16:06.157Z,99.99
2019-02-11T09:17:10.476Z,99.99
2019-02-11T09:18:06.132Z,99.99
2019-02-11T09:19:06.121Z,99.99
2019-02-11T09:20:06.106Z,99.99
2019-02-11T09:21:06.095Z,99.99
2019-02-11T09:22:07.805Z,99.99
2019-02-11T09:23:06.069Z,99.99
2019-02-11T09:24:06.058Z,99.99
2019-02-11T09:25:06.044Z,99.99
2019-02-11T09:26:06.031Z,99.99
2019-02-11T09:27:06.019Z,99.99
2019-02-11T09:28:06.008Z,99.99
2019-02-11T09:29:05.996Z,99.99
2019-02-11T09:30:05.984Z,99.99
2019-02-11T09:31:05.973Z,99.99
2019-02-11T09:32:05.961Z,99.99
2019-02-11T09:33:05.950Z,99.99
2019-02-11T09:34:05.937Z,99.99
2019-02-11T09:35:05.926Z,99.99
2019-02-11T09:36:05.915Z,99.99
2019-02-11T09:37:05.904Z,99.99
2019-02-11T09:38:05.891Z,99.99
2019-02-11T09:39:05.880Z,99.99
2019-02-11T09:40:05.869Z,99.99
2019-02-11T09:41:05.857Z,99.99
2019-02-11T09:42:05.844Z,99.99
2019-02-11T09:43:05.832Z,99.99
2019-02-11T09:44:05.822Z,99.99
2019-02-11T09:45:05.809Z,99.99
2019-02-11T09:46:05.795Z,99.99
2019-02-11T09:47:05.784Z,99.99
2019-02-11T09:48:05.773Z,99.99
2019-02-11T09:49:05.768Z,99.99
2019-02-11T09:50:05.750Z,99.99
2019-02-11T09:51:05.735Z,99.99
2019-02-11T09:52:05.722Z,99.99
2019-02-11T09:53:05.710Z,99.99
2019-02-11T09:54:05.698Z,99.99
2019-02-11T09:55:05.684Z,99.99
2019-02-11T09:56:05.672Z,99.99
2019-02-11T09:57:05.660Z,99.99
2019-02-11T09:58:05.647Z,99.99
2019-02-11T09:59:05.636Z,99.99
2019-02-11T10:00:05.630Z,99.99
2019-02-11T10:01:05.609Z,99.99
2019-02-11T10:02:05.596Z,99.99
2019-02-11T10:03:05.584Z,99.99
2019-02-11T10:04:05.571Z,99.99
2019-02-11T10:05:05.559Z,99.99
2019-02-11T10:06:05.552Z,99.99
2019-02-11T10:07:05.533Z,99.99
2019-02-11T10:08:05.521Z,99.99
2019-02-11T10:09:05.509Z,99.99
2019-02-11T10:10:05.495Z,99.99
2019-02-11T10:11:05.483Z,99.99
2019-02-11T10:12:05.472Z,99.99
2019-02-11T10:13:05.479Z,99.99
2019-02-11T10:14:05.445Z,99.99
2019-02-11T10:15:05.432Z,99.99
2019-02-11T10:16:12.286Z,99.99
2019-02-11T10:17:05.407Z,99.99
2019-02-11T10:18:05.394Z,99.99
2019-02-11T10:19:05.382Z,99.99
2019-02-11T10:20:05.370Z,99.99
2019-02-11T10:21:05.360Z,99.99
2019-02-11T10:22:05.344Z,99.99
2019-02-11T10:23:05.333Z,99.99
2019-02-11T10:24:05.321Z,99.99
2019-02-11T10:25:05.308Z,99.99
2019-02-11T10:26:05.294Z,99.99
2019-02-11T10:27:05.282Z,99.99
2019-02-11T10:28:05.270Z,99.99
2019-02-11T10:29:05.259Z,99.99
2019-02-11T10:30:05.251Z,99.99
2019-02-11T10:31:05.234Z,99.99
2019-02-11T10:32:05.222Z,99.99
2019-02-11T10:33:05.212Z,99.99
2019-02-11T10:34:05.199Z,97.78
2019-02-11T10:35:05.189Z,98.45
2019-02-11T10:36:05.178Z,98.35
2019-02-11T10:37:05.166Z,98.64
2019-02-11T10:38:05.155Z,99.58
2019-02-11T10:39:05.145Z,97.50
2019-02-11T10:40:05.135Z,97.12
2019-02-11T10:41:05.124Z,97.22
2019-02-11T10:42:05.160Z,97.36
2019-02-11T10:43:05.101Z,99.06
2019-02-11T10:44:05.091Z,98.87
2019-02-11T10:45:05.080Z,99.58
2019-02-11T10:46:05.067Z,98.92
2019-02-11T10:47:05.057Z,98.45
2019-02-11T10:48:05.046Z,97.31
2019-02-11T10:49:05.035Z,97.88
2019-02-11T10:50:05.023Z,97.22
2019-02-11T10:51:05.012Z,97.31
2019-02-11T10:52:05.001Z,98.07
2019-02-11T10:53:04.990Z,98.26
2019-02-11T10:54:04.978Z,98.92
2019-02-11T10:55:04.967Z,97.88
2019-02-11T10:56:04.956Z,98.26
2019-02-11T10:57:04.946Z,97.22
2019-02-11T10:58:04.934Z,95.36
2019-02-11T10:59:04.924Z,95.17
2019-02-11T11:00:04.914Z,94.42
2019-02-11T11:01:04.903Z,94.32
2019-02-11T11:02:04.892Z,94.08
2019-02-11T11:03:04.882Z,94.46
2019-02-11T11:04:04.872Z,95.60
2019-02-11T11:05:04.861Z,95.51
2019-02-11T11:06:04.849Z,95.41
2019-02-11T11:07:04.839Z,94.84
2019-02-11T11:08:04.829Z,95.22
2019-02-11T11:09:04.820Z,94.60
2019-02-11T11:10:04.806Z,93.37
2019-02-11T11:11:04.797Z,92.23
2019-02-11T11:12:04.786Z,90.90
2019-02-11T11:13:04.777Z,89.47
2019-02-11T11:14:04.765Z,90.14
2019-02-11T11:15:04.757Z,88.95
2019-02-11T11:16:04.749Z,89.04
2019-02-11T11:17:04.739Z,87.90
2019-02-11T11:18:04.727Z,88.95
2019-02-11T11:19:04.719Z,88.57
2019-02-11T11:20:04.710Z,89.04
2019-02-11T11:21:04.701Z,89.23
2019-02-11T11:22:04.693Z,89.38
2019-02-11T11:23:04.682Z,89.95
2019-02-11T11:24:04.672Z,90.05
2019-02-11T11:25:04.662Z,91.47
2019-02-11T11:26:04.655Z,92.04
2019-02-11T11:27:04.646Z,91.47
2019-02-11T11:28:04.632Z,91.66
2019-02-11T11:29:05.937Z,91.38
2019-02-11T11:30:04.610Z,90.23
2019-02-11T11:31:04.603Z,90.90
2019-02-11T11:32:04.591Z,91.47
2019-02-11T11:33:04.580Z,91.38
2019-02-11T11:34:04.568Z,91.19
2019-02-11T11:35:04.557Z,91.09
2019-02-11T11:36:04.548Z,90.80
2019-02-11T11:37:04.536Z,91.85
2019-02-11T11:38:04.525Z,92.04
2019-02-11T11:39:04.514Z,92.42
2019-02-11T11:40:04.504Z,91.04
2019-02-11T11:41:04.496Z,90.09
2019-02-11T11:42:04.483Z,88.95
2019-02-11T11:43:04.472Z,89.14
2019-02-11T11:44:04.462Z,89.00
2019-02-11T11:45:04.452Z,89.00
2019-02-11T11:46:04.443Z,86.61
2019-02-11T11:47:04.432Z,86.47
2019-02-11T11:48:04.423Z,85.24
2019-02-11T11:49:04.414Z,84.38
2019-02-11T11:50:04.404Z,84.61
2019-02-11T11:51:04.396Z,82.61
2019-02-11T11:52:04.387Z,82.23
2019-02-11T11:53:04.378Z,81.76
2019-02-11T11:54:04.371Z,81.37
2019-02-11T11:55:04.362Z,81.28
2019-02-11T11:56:04.361Z,82.70
2019-02-11T11:57:04.350Z,81.56
2019-02-11T11:58:04.341Z,81.90
2019-02-11T11:59:04.347Z,82.57
2019-02-11T12:00:04.326Z,83.19
2019-02-11T12:01:04.324Z,83.86
2019-02-11T12:02:04.308Z,84.77
2019-02-11T12:03:05.633Z,86.67
2019-02-11T12:04:06.527Z,87.90
2019-02-11T12:05:04.279Z,87.71
2019-02-11T12:06:04.948Z,88.28
2019-02-11T12:07:04.259Z,88.85
2019-02-11T12:08:04.262Z,88.67
2019-02-11T12:09:04.240Z,88.62
2019-02-11T12:10:04.231Z,88.34
2019-02-11T12:11:04.225Z,88.81
2019-02-11T12:12:04.233Z,88.34
2019-02-11T12:13:21.411Z,88.71
2019-02-11T12:14:04.201Z,88.15
2019-02-11T12:15:04.177Z,88.76
2019-02-11T12:16:04.175Z,88.47
2019-02-11T12:17:04.169Z,88.00
2019-02-11T12:18:04.149Z,88.09
2019-02-11T12:19:04.137Z,87.57
2019-02-11T12:20:04.125Z,88.15
2019-02-11T12:21:04.122Z,88.15
2019-02-11T12:22:04.106Z,87.71
2019-02-11T12:23:04.132Z,88.53
2019-02-11T12:24:04.088Z,88.09
2019-02-11T12:25:04.070Z,87.81
2019-02-11T12:26:04.063Z,87.24
2019-02-11T12:27:04.061Z,87.34
2019-02-11T12:28:04.036Z,86.86
2019-02-11T12:29:04.029Z,86.72
2019-02-11T12:30:04.033Z,87.24
2019-02-11T12:31:04.006Z,86.34
2019-02-11T12:32:04.133Z,87.14
2019-02-11T12:33:04.034Z,86.34
2019-02-11T12:34:03.971Z,86.53
2019-02-11T12:35:03.971Z,86.15
2019-02-11T12:36:03.947Z,86.00
2019-02-11T12:37:03.939Z,85.62
2019-02-11T12:38:03.939Z,85.43
2019-02-11T12:39:03.916Z,85.28
2019-02-11T12:40:03.907Z,84.81
2019-02-11T12:41:03.897Z,84.29
2019-02-11T12:42:03.887Z,84.95
2019-02-11T12:43:03.910Z,85.81
2019-02-11T12:44:03.861Z,86.24
2019-02-11T12:45:03.862Z,86.29
2019-02-11T12:46:03.849Z,87.76
2019-02-11T12:47:14.063Z,86.95
2019-02-11T12:48:03.819Z,86.72
2019-02-11T12:49:03.883Z,87.10
2019-02-11T12:50:03.795Z,87.62
2019-02-11T12:51:03.787Z,87.67
2019-02-11T12:52:03.787Z,88.43